Time;durP1;ratioP1;P1;durP2;ratioP2;P2;SDS_P1;SDS_P2;PMS_P1;PMS_P2;Temp;Humidity;BMP_temperature;BMP_pressure;BME280_temperature;BME280_humidity;BME280_pressure;Samples;Min_cycle;Max_cycle;Signal;HPM_P1;HPM_P2
2024/03/21 00:02:19;;;;;;;27.08;20.27;;;;;;;;;;5028352;28;20135;-78
2024/03/21 00:04:44;;;;;;;28.58;20.30;;;;;;;;;;5025352;28;20055;-77
2024/03/21 00:07:11;;;;;;;28.35;20.15;;;;;;;;;;5029985;28;20497;-77
2024/03/21 00:09:38;;;;;;;29.48;20.20;;;;;;;;;;5048501;28;20037;-77
2024/03/21 00:12:05;;;;;;;28.75;20.05;;;;;;;;;;5045944;28;20020;-78
2024/03/21 00:14:30;;;;;;;30.75;20.42;;;;;;;;;;5049549;28;20082;-77
2024/03/21 00:16:56;;;;;;;27.70;19.98;;;;;;;;;;5029450;28;20029;-77
2024/03/21 00:19:21;;;;;;;27.92;19.98;;;;;;;;;;5047107;28;20051;-78
2024/03/21 00:21:47;;;;;;;26.02;18.83;;;;;;;;;;5031991;28;20029;-78
2024/03/21 00:24:13;;;;;;;25.55;19.17;;;;;;;;;;5046375;28;20124;-78
2024/03/21 00:26:39;;;;;;;28.90;19.30;;;;;;;;;;5030564;28;20025;-77
2024/03/21 00:29:04;;;;;;;24.25;18.60;;;;;;;;;;5047341;28;20540;-77
2024/03/21 00:31:31;;;;;;;27.50;19.35;;;;;;;;;;5046927;28;20028;-78
2024/03/21 00:33:57;;;;;;;30.13;20.02;;;;;;;;;;5047533;28;20459;-86
2024/03/21 00:36:23;;;;;;;26.90;20.15;;;;;;;;;;5045772;28;20036;-86
2024/03/21 00:38:48;;;;;;;27.10;19.58;;;;;;;;;;5032876;28;20437;-86
2024/03/21 00:41:13;;;;;;;26.73;19.08;;;;;;;;;;5044369;28;20119;-86
2024/03/21 00:43:39;;;;;;;28.52;19.10;;;;;;;;;;5044336;28;20052;-86
2024/03/21 00:46:04;;;;;;;29.00;19.33;;;;;;;;;;5047928;28;20021;-85
2024/03/21 00:48:30;;;;;;;26.30;19.08;;;;;;;;;;5028597;28;20368;-86
2024/03/21 00:50:55;;;;;;;24.58;18.35;;;;;;;;;;5047426;28;20021;-85
2024/03/21 00:53:21;;;;;;;25.70;18.30;;;;;;;;;;5048121;28;20385;-86
2024/03/21 00:55:46;;;;;;;25.13;17.95;;;;;;;;;;5043993;28;20033;-86
2024/03/21 00:58:11;;;;;;;25.88;18.90;;;;;;;;;;5047194;28;20032;-86
2024/03/21 01:00:37;;;;;;;25.80;18.85;;;;;;;;;;5038572;28;20617;-86
2024/03/21 01:03:02;;;;;;;27.77;18.60;;;;;;;;;;5029483;28;20091;-86
2024/03/21 01:05:28;;;;;;;27.38;19.15;;;;;;;;;;5045700;28;20025;-86
2024/03/21 01:07:54;;;;;;;25.38;18.65;;;;;;;;;;5029012;28;20451;-86
2024/03/21 01:10:19;;;;;;;26.35;17.75;;;;;;;;;;5046938;28;20098;-86
2024/03/21 01:12:45;;;;;;;24.80;17.42;;;;;;;;;;5030197;28;20434;-86
2024/03/21 01:15:10;;;;;;;26.17;18.85;;;;;;;;;;5047509;28;20106;-86
2024/03/21 01:17:36;;;;;;;26.45;18.13;;;;;;;;;;5046535;28;20024;-85
2024/03/21 01:20:06;;;;;;;25.50;18.48;;;;;;;;;;5027577;28;20059;-85
2024/03/21 01:22:32;;;;;;;25.60;18.73;;;;;;;;;;5042722;28;20025;-86
2024/03/21 01:24:57;;;;;;;27.88;19.98;;;;;;;;;;5027589;28;20405;-86
2024/03/21 01:27:22;;;;;;;29.27;19.10;;;;;;;;;;5026681;28;20466;-86
2024/03/21 01:29:48;;;;;;;24.52;17.27;;;;;;;;;;5045720;28;20040;-86
2024/03/21 01:32:13;;;;;;;25.83;18.10;;;;;;;;;;5036417;28;20036;-86
2024/03/21 01:34:39;;;;;;;25.05;17.27;;;;;;;;;;5044293;28;20083;-86
2024/03/21 01:37:05;;;;;;;26.45;18.58;;;;;;;;;;5045804;28;20474;-86
2024/03/21 01:39:30;;;;;;;26.02;17.77;;;;;;;;;;5028839;28;20453;-86
2024/03/21 01:41:56;;;;;;;24.25;18.42;;;;;;;;;;5045669;28;20064;-79
2024/03/21 01:44:21;;;;;;;23.65;17.20;;;;;;;;;;5044790;28;20033;-77
2024/03/21 01:46:47;;;;;;;24.38;17.52;;;;;;;;;;5046152;28;20029;-77
2024/03/21 01:49:14;;;;;;;23.38;17.27;;;;;;;;;;5046162;28;20037;-77
2024/03/21 01:51:41;;;;;;;26.08;17.55;;;;;;;;;;5042595;28;20457;-77
2024/03/21 01:54:08;;;;;;;23.77;16.65;;;;;;;;;;5045878;28;20035;-77
2024/03/21 01:56:37;;;;;;;25.67;17.60;;;;;;;;;;5044275;28;20063;-78
2024/03/21 01:59:03;;;;;;;26.50;17.42;;;;;;;;;;5045188;28;20037;-78
2024/03/21 02:01:30;;;;;;;23.85;17.10;;;;;;;;;;5027606;28;20020;-77
2024/03/21 02:04:00;;;;;;;23.73;17.40;;;;;;;;;;5043727;28;20060;-77
2024/03/21 02:06:27;;;;;;;22.48;16.95;;;;;;;;;;5024530;28;20033;-77
2024/03/21 02:08:53;;;;;;;23.30;17.30;;;;;;;;;;5013565;28;20467;-86
2024/03/21 02:11:22;;;;;;;23.63;16.63;;;;;;;;;;5045849;28;20111;-86
2024/03/21 02:13:53;;;;;;;24.77;16.15;;;;;;;;;;5026033;28;20079;-86
2024/03/21 02:16:19;;;;;;;23.38;16.65;;;;;;;;;;5043895;28;20485;-87
2024/03/21 02:18:44;;;;;;;22.35;16.73;;;;;;;;;;5045789;28;20033;-86
2024/03/21 02:23:54;;;;;;;24.00;16.13;;;;;;;;;;5043686;28;20063;-85
2024/03/21 02:26:20;;;;;;;21.77;15.43;;;;;;;;;;5043789;28;20174;-86
2024/03/21 02:28:47;;;;;;;21.27;14.73;;;;;;;;;;5046738;28;20488;-86
2024/03/21 02:31:13;;;;;;;21.15;13.77;;;;;;;;;;5044836;28;20104;-86
2024/03/21 02:33:38;;;;;;;18.08;13.73;;;;;;;;;;5045002;28;20111;-86
2024/03/21 02:36:04;;;;;;;17.98;12.45;;;;;;;;;;5042375;28;20451;-85
2024/03/21 02:38:29;;;;;;;15.93;11.63;;;;;;;;;;5043386;28;20837;-86
2024/03/21 02:40:55;;;;;;;17.15;11.57;;;;;;;;;;5044063;28;20457;-86
2024/03/21 02:43:20;;;;;;;14.32;10.40;;;;;;;;;;5044693;28;20033;-85
2024/03/21 02:45:46;;;;;;;13.95;10.63;;;;;;;;;;5045804;28;20055;-86
2024/03/21 02:48:11;;;;;;;17.00;10.52;;;;;;;;;;5045123;28;20068;-86
2024/03/21 02:50:37;;;;;;;15.15;10.18;;;;;;;;;;5045379;28;20033;-85
2024/03/21 02:53:04;;;;;;;15.82;10.60;;;;;;;;;;5043891;28;20077;-87
2024/03/21 02:55:29;;;;;;;15.40;10.68;;;;;;;;;;5027177;28;20037;-86
2024/03/21 02:57:55;;;;;;;14.05;10.25;;;;;;;;;;5043501;28;20029;-85
2024/03/21 03:00:20;;;;;;;16.63;11.07;;;;;;;;;;5044268;28;20043;-85
2024/03/21 03:02:46;;;;;;;16.60;10.60;;;;;;;;;;5044598;28;20402;-85
2024/03/21 03:05:13;;;;;;;16.23;11.23;;;;;;;;;;5044406;28;20167;-86
2024/03/21 03:07:38;;;;;;;17.88;11.80;;;;;;;;;;5041834;28;20064;-85
2024/03/21 03:10:04;;;;;;;17.25;11.85;;;;;;;;;;5044363;28;20025;-86
2024/03/21 03:12:30;;;;;;;16.83;12.10;;;;;;;;;;5025909;28;20586;-85
2024/03/21 03:14:56;;;;;;;16.70;12.05;;;;;;;;;;5045690;28;20498;-86
2024/03/21 03:17:21;;;;;;;18.75;11.88;;;;;;;;;;5045937;28;20033;-86
2024/03/21 03:19:47;;;;;;;19.17;12.38;;;;;;;;;;5024636;28;20101;-86
2024/03/21 03:22:12;;;;;;;17.38;11.88;;;;;;;;;;5027750;28;20057;-86
2024/03/21 03:24:38;;;;;;;16.02;11.02;;;;;;;;;;5029197;28;20478;-86
2024/03/21 03:27:03;;;;;;;15.45;11.20;;;;;;;;;;5043990;28;20067;-86
2024/03/21 03:29:29;;;;;;;16.38;12.00;;;;;;;;;;5044798;28;20041;-86
2024/03/21 03:32:01;;;;;;;16.48;11.57;;;;;;;;;;5032738;28;20029;-86
2024/03/21 03:37:11;;;;;;;17.48;12.45;;;;;;;;;;5041385;28;20032;-85
2024/03/21 03:39:37;;;;;;;20.17;12.93;;;;;;;;;;5043646;28;20029;-85
2024/03/21 03:42:02;;;;;;;17.92;12.60;;;;;;;;;;5047180;28;20021;-86
2024/03/21 03:44:27;;;;;;;16.85;12.05;;;;;;;;;;5046811;28;20441;-86
2024/03/21 03:46:53;;;;;;;18.63;13.60;;;;;;;;;;5047477;28;20532;-86
2024/03/21 03:49:18;;;;;;;17.20;13.73;;;;;;;;;;5047151;28;20108;-86
2024/03/21 03:51:44;;;;;;;19.25;14.15;;;;;;;;;;5046604;28;20860;-86
2024/03/21 03:54:09;;;;;;;20.17;13.57;;;;;;;;;;5029646;28;20028;-85
2024/03/21 03:56:34;;;;;;;20.17;13.35;;;;;;;;;;5047048;28;20071;-86
2024/03/21 03:59:00;;;;;;;22.85;14.48;;;;;;;;;;5028936;28;20025;-86
2024/03/21 04:01:25;;;;;;;22.73;14.48;;;;;;;;;;5046875;28;20039;-85
2024/03/21 04:03:51;;;;;;;23.27;14.80;;;;;;;;;;5048025;28;20033;-86
2024/03/21 04:06:16;;;;;;;19.50;14.18;;;;;;;;;;5029805;28;20035;-85
2024/03/21 04:08:41;;;;;;;22.00;14.98;;;;;;;;;;5047402;28;20024;-86
2024/03/21 04:11:13;;;;;;;22.17;15.25;;;;;;;;;;5031251;28;20033;-86
2024/03/21 04:13:38;;;;;;;21.63;15.02;;;;;;;;;;5047232;28;20104;-85
2024/03/21 04:16:04;;;;;;;23.35;15.35;;;;;;;;;;5047424;28;20036;-85
2024/03/21 04:18:29;;;;;;;24.23;15.52;;;;;;;;;;5029943;28;20438;-86
2024/03/21 04:20:56;;;;;;;20.80;15.00;;;;;;;;;;5037549;28;21482;-86
2024/03/21 04:23:22;;;;;;;24.88;16.77;;;;;;;;;;5046452;28;20111;-77
2024/03/21 04:25:48;;;;;;;23.83;16.23;;;;;;;;;;5044257;28;20013;-77
2024/03/21 04:28:13;;;;;;;22.98;16.20;;;;;;;;;;5045444;28;20031;-77
2024/03/21 04:30:39;;;;;;;25.17;17.00;;;;;;;;;;5047283;28;20064;-77
2024/03/21 04:33:05;;;;;;;24.30;16.95;;;;;;;;;;5046326;28;20399;-78
2024/03/21 04:35:30;;;;;;;24.73;17.38;;;;;;;;;;5027771;28;20120;-77
2024/03/21 04:37:56;;;;;;;28.95;17.20;;;;;;;;;;5031896;28;20091;-78
2024/03/21 04:40:22;;;;;;;25.88;17.27;;;;;;;;;;5044817;28;20032;-77
2024/03/21 04:42:47;;;;;;;26.98;17.70;;;;;;;;;;5045757;28;20382;-77
2024/03/21 04:45:13;;;;;;;27.83;18.30;;;;;;;;;;5027838;28;20028;-77
2024/03/21 04:47:39;;;;;;;28.58;18.67;;;;;;;;;;5027921;28;20479;-77
2024/03/21 04:50:05;;;;;;;28.73;19.02;;;;;;;;;;5045126;28;20052;-77
2024/03/21 04:52:30;;;;;;;27.48;18.13;;;;;;;;;;5029490;28;20119;-77
2024/03/21 04:54:56;;;;;;;30.83;18.95;;;;;;;;;;5046885;28;20032;-77
2024/03/21 04:57:21;;;;;;;32.42;20.13;;;;;;;;;;5029409;28;20399;-77
2024/03/21 04:59:47;;;;;;;29.98;19.75;;;;;;;;;;5047259;28;20395;-77
2024/03/21 05:02:12;;;;;;;34.83;20.15;;;;;;;;;;5046637;28;20060;-78
2024/03/21 05:04:38;;;;;;;35.53;21.17;;;;;;;;;;5045019;28;20021;-78
2024/03/21 05:07:04;;;;;;;33.70;21.20;;;;;;;;;;5028554;28;20082;-78
2024/03/21 05:09:29;;;;;;;34.65;21.13;;;;;;;;;;5038859;28;20114;-77
2024/03/21 05:11:55;;;;;;;29.75;20.23;;;;;;;;;;5044258;28;20475;-78
2024/03/21 05:14:20;;;;;;;33.58;19.77;;;;;;;;;;5028449;28;20483;-77
2024/03/21 05:16:45;;;;;;;30.73;19.65;;;;;;;;;;5043187;28;20035;-77
2024/03/21 05:19:11;;;;;;;23.95;15.68;;;;;;;;;;5022735;28;20025;-77
2024/03/21 05:21:37;;;;;;;20.73;13.43;;;;;;;;;;5034711;28;21336;-77
2024/03/21 05:24:03;;;;;;;20.40;12.82;;;;;;;;;;5034435;28;20071;-77
2024/03/21 05:26:28;;;;;;;17.33;11.45;;;;;;;;;;5023089;28;20414;-77
2024/03/21 05:28:53;;;;;;;17.08;10.95;;;;;;;;;;5044366;28;20036;-77
2024/03/21 05:31:21;;;;;;;15.38;10.40;;;;;;;;;;5048611;28;20020;-77
2024/03/21 05:33:47;;;;;;;13.05;9.68;;;;;;;;;;5040924;28;20037;-86
2024/03/21 05:36:13;;;;;;;12.50;9.57;;;;;;;;;;5040304;28;20029;-86
2024/03/21 05:38:38;;;;;;;11.82;9.15;;;;;;;;;;5027496;28;20051;-85
2024/03/21 05:41:03;;;;;;;10.90;8.27;;;;;;;;;;5042332;28;20032;-86
2024/03/21 05:43:29;;;;;;;9.55;6.90;;;;;;;;;;5042562;28;20427;-86
2024/03/21 05:45:54;;;;;;;8.23;5.40;;;;;;;;;;5029375;28;20148;-85
2024/03/21 05:48:20;;;;;;;6.00;4.60;;;;;;;;;;5044314;28;20417;-86
2024/03/21 05:50:45;;;;;;;5.53;4.40;;;;;;;;;;5043782;28;20033;-85
2024/03/21 05:53:11;;;;;;;5.97;3.88;;;;;;;;;;5026314;28;20025;-86
2024/03/21 05:55:36;;;;;;;4.80;3.67;;;;;;;;;;5031524;28;20037;-85
2024/03/21 05:58:01;;;;;;;6.05;3.70;;;;;;;;;;5050540;28;20033;-86
2024/03/21 06:00:27;;;;;;;5.50;3.85;;;;;;;;;;5031164;28;20033;-86
2024/03/21 06:02:52;;;;;;;7.20;4.30;;;;;;;;;;5049606;28;20421;-86
2024/03/21 06:05:18;;;;;;;5.70;3.90;;;;;;;;;;5031360;28;20043;-86
2024/03/21 06:07:43;;;;;;;6.53;3.90;;;;;;;;;;5050903;28;20025;-86
2024/03/21 06:10:09;;;;;;;6.13;3.88;;;;;;;;;;5036325;28;20029;-85
2024/03/21 06:12:34;;;;;;;6.53;4.50;;;;;;;;;;5047655;28;20029;-86
2024/03/21 06:14:59;;;;;;;7.28;4.15;;;;;;;;;;5042546;28;20144;-86
2024/03/21 06:17:25;;;;;;;8.43;4.90;;;;;;;;;;5050495;28;20360;-86
2024/03/21 06:19:50;;;;;;;8.38;4.90;;;;;;;;;;5032882;28;20021;-86
2024/03/21 06:22:16;;;;;;;6.90;4.60;;;;;;;;;;5048688;28;20534;-86
2024/03/21 06:24:41;;;;;;;6.82;5.07;;;;;;;;;;5035537;28;20033;-86
2024/03/21 06:27:06;;;;;;;7.93;5.68;;;;;;;;;;5027438;28;20021;-86
2024/03/21 06:29:32;;;;;;;6.50;5.07;;;;;;;;;;5033138;28;20033;-86
2024/03/21 06:31:57;;;;;;;9.07;6.20;;;;;;;;;;5033199;28;22173;-87
2024/03/21 06:34:23;;;;;;;8.98;6.13;;;;;;;;;;5047906;28;20033;-87
2024/03/21 06:36:48;;;;;;;7.82;5.80;;;;;;;;;;5027942;28;20052;-86
2024/03/21 06:39:13;;;;;;;9.45;5.57;;;;;;;;;;5051479;28;20479;-86
2024/03/21 06:41:42;;;;;;;7.65;5.80;;;;;;;;;;5033198;28;20135;-86
2024/03/21 06:44:09;;;;;;;7.05;5.65;;;;;;;;;;5033812;28;20071;-86
2024/03/21 06:46:38;;;;;;;8.68;5.43;;;;;;;;;;5051273;28;20025;-86
2024/03/21 06:49:03;;;;;;;7.53;5.10;;;;;;;;;;5043779;28;20055;-86
2024/03/21 06:51:29;;;;;;;8.45;4.75;;;;;;;;;;5047206;28;20075;-86
2024/03/21 06:53:54;;;;;;;9.02;5.13;;;;;;;;;;5031716;28;20033;-86
2024/03/21 06:56:20;;;;;;;6.90;5.07;;;;;;;;;;5029128;28;20040;-86
2024/03/21 06:58:45;;;;;;;9.55;4.30;;;;;;;;;;5047019;28;20357;-86
2024/03/21 07:01:10;;;;;;;6.93;4.70;;;;;;;;;;5046959;28;20119;-86
2024/03/21 07:03:36;;;;;;;7.00;4.20;;;;;;;;;;5032669;28;20402;-86
2024/03/21 07:06:01;;;;;;;6.20;3.80;;;;;;;;;;5050003;28;20390;-86
2024/03/21 07:08:27;;;;;;;5.35;3.83;;;;;;;;;;5031758;28;20026;-85
2024/03/21 07:10:52;;;;;;;6.45;3.38;;;;;;;;;;5033477;28;20376;-86
2024/03/21 07:13:18;;;;;;;5.30;3.38;;;;;;;;;;5030415;28;20021;-86
2024/03/21 07:15:43;;;;;;;4.15;3.10;;;;;;;;;;5054270;28;20029;-86
2024/03/21 07:18:12;;;;;;;5.20;3.42;;;;;;;;;;5051244;28;20033;-86
2024/03/21 07:20:37;;;;;;;5.80;3.28;;;;;;;;;;5038057;28;20037;-86
2024/03/21 07:23:03;;;;;;;5.25;2.88;;;;;;;;;;5051307;28;20029;-86
2024/03/21 07:25:28;;;;;;;6.18;2.80;;;;;;;;;;5035543;28;20028;-86
2024/03/21 07:27:54;;;;;;;6.85;2.60;;;;;;;;;;5041755;28;20070;-86
2024/03/21 07:30:19;;;;;;;5.50;2.60;;;;;;;;;;5032823;28;20039;-86
2024/03/21 07:32:48;;;;;;;5.43;2.20;;;;;;;;;;5039716;28;20021;-86
2024/03/21 07:35:14;;;;;;;6.00;2.58;;;;;;;;;;5052802;28;20099;-86
2024/03/21 07:37:39;;;;;;;5.13;2.30;;;;;;;;;;5038229;28;20315;-86
2024/03/21 07:40:05;;;;;;;4.28;2.22;;;;;;;;;;5034258;28;20376;-87
2024/03/21 07:42:31;;;;;;;5.95;2.58;;;;;;;;;;5052905;28;20030;-86
2024/03/21 07:44:57;;;;;;;4.20;2.20;;;;;;;;;;5053230;28;20075;-86
2024/03/21 07:47:22;;;;;;;6.63;2.50;;;;;;;;;;5054375;28;20013;-86
2024/03/21 07:49:48;;;;;;;5.20;2.13;;;;;;;;;;5050844;28;20025;-86
2024/03/21 07:52:13;;;;;;;7.65;3.00;;;;;;;;;;5052698;28;20050;-85
2024/03/21 07:54:39;;;;;;;3.83;2.30;;;;;;;;;;5048087;28;20028;-77
2024/03/21 07:57:04;;;;;;;5.10;2.20;;;;;;;;;;5033042;28;20447;-77
2024/03/21 07:59:30;;;;;;;5.28;2.05;;;;;;;;;;5046146;28;20041;-78
2024/03/21 08:01:55;;;;;;;6.65;2.20;;;;;;;;;;5048435;28;20025;-77
2024/03/21 08:04:21;;;;;;;5.68;2.00;;;;;;;;;;5027415;28;20442;-78
2024/03/21 08:06:46;;;;;;;4.95;2.00;;;;;;;;;;5052654;28;20441;-77
2024/03/21 08:09:12;;;;;;;4.70;1.90;;;;;;;;;;5053486;28;20024;-77
2024/03/21 08:11:38;;;;;;;4.05;1.95;;;;;;;;;;5037276;28;20020;-78
2024/03/21 08:14:03;;;;;;;5.65;2.03;;;;;;;;;;5031770;28;20032;-78
2024/03/21 08:16:29;;;;;;;4.80;1.73;;;;;;;;;;5036563;28;20083;-76
2024/03/21 08:18:54;;;;;;;5.15;1.95;;;;;;;;;;5046976;28;20116;-78
2024/03/21 08:21:21;;;;;;;4.20;2.22;;;;;;;;;;5050501;28;20053;-78
2024/03/21 08:23:49;;;;;;;4.00;1.70;;;;;;;;;;5046723;28;20035;-77
2024/03/21 08:26:16;;;;;;;4.20;2.00;;;;;;;;;;5042465;28;20116;-78
2024/03/21 08:28:42;;;;;;;6.00;2.33;;;;;;;;;;5035077;28;20032;-77
2024/03/21 08:31:07;;;;;;;7.28;2.20;;;;;;;;;;5035332;28;20025;-78
2024/03/21 08:33:33;;;;;;;5.38;2.20;;;;;;;;;;5053385;28;20495;-77
2024/03/21 08:35:58;;;;;;;5.95;2.20;;;;;;;;;;5051417;28;20064;-77
2024/03/21 08:38:24;;;;;;;4.53;2.25;;;;;;;;;;5035547;28;20032;-78
2024/03/21 08:40:50;;;;;;;4.60;2.10;;;;;;;;;;5047177;28;20041;-78
2024/03/21 08:43:16;;;;;;;6.53;2.10;;;;;;;;;;5041987;28;20033;-77
2024/03/21 08:45:43;;;;;;;3.88;1.98;;;;;;;;;;5035163;28;20033;-78
2024/03/21 08:48:09;;;;;;;5.47;1.90;;;;;;;;;;5034499;28;20036;-78
2024/03/21 08:50:34;;;;;;;5.53;2.20;;;;;;;;;;5035691;28;20485;-78
2024/03/21 08:53:00;;;;;;;6.50;2.47;;;;;;;;;;5046712;28;20083;-77
2024/03/21 08:55:25;;;;;;;4.85;2.20;;;;;;;;;;5046384;28;20055;-78
2024/03/21 08:57:51;;;;;;;5.00;2.00;;;;;;;;;;5052050;28;20029;-78
2024/03/21 09:00:16;;;;;;;5.40;2.25;;;;;;;;;;5034936;28;20060;-77
2024/03/21 09:02:42;;;;;;;4.35;1.90;;;;;;;;;;5053061;28;20025;-88
2024/03/21 09:05:07;;;;;;;5.15;1.92;;;;;;;;;;5034939;28;20024;-86
2024/03/21 09:07:33;;;;;;;3.45;2.00;;;;;;;;;;5049102;28;20025;-86
2024/03/21 09:09:58;;;;;;;5.03;2.10;;;;;;;;;;5045560;28;20040;-87
2024/03/21 09:12:24;;;;;;;5.45;2.20;;;;;;;;;;5034400;28;20033;-86
2024/03/21 09:14:49;;;;;;;5.20;1.95;;;;;;;;;;5034231;28;20046;-86
2024/03/21 09:17:14;;;;;;;4.90;2.35;;;;;;;;;;5031948;28;20033;-86
2024/03/21 09:19:40;;;;;;;4.32;1.77;;;;;;;;;;5026761;28;20530;-86
2024/03/21 09:22:05;;;;;;;4.03;1.75;;;;;;;;;;5034080;28;20028;-86
2024/03/21 09:24:31;;;;;;;4.18;1.88;;;;;;;;;;5035252;28;20418;-86
2024/03/21 09:26:57;;;;;;;7.18;1.88;;;;;;;;;;5047036;28;20017;-86
2024/03/21 09:29:23;;;;;;;4.38;1.98;;;;;;;;;;5032540;28;20060;-86
2024/03/21 09:31:49;;;;;;;3.80;1.60;;;;;;;;;;5051499;28;20556;-86
2024/03/21 09:34:14;;;;;;;4.65;1.70;;;;;;;;;;5051306;28;20025;-86
2024/03/21 09:36:39;;;;;;;4.68;1.63;;;;;;;;;;5051090;28;20025;-87
2024/03/21 09:39:06;;;;;;;5.10;1.70;;;;;;;;;;5049495;28;20028;-86
2024/03/21 09:41:32;;;;;;;5.65;1.63;;;;;;;;;;5048089;28;20029;-86
2024/03/21 09:44:00;;;;;;;4.85;2.00;;;;;;;;;;5039993;28;20029;-86
2024/03/21 09:46:27;;;;;;;4.95;2.00;;;;;;;;;;5034809;28;20029;-86
2024/03/21 09:48:53;;;;;;;4.57;1.80;;;;;;;;;;5051866;28;20023;-87
2024/03/21 09:51:25;;;;;;;5.22;2.15;;;;;;;;;;5050118;28;20449;-87
2024/03/21 09:53:51;;;;;;;3.65;1.63;;;;;;;;;;5034548;28;20067;-86
2024/03/21 09:56:17;;;;;;;6.90;2.05;;;;;;;;;;5040442;28;20060;-87
2024/03/21 09:58:44;;;;;;;4.32;2.05;;;;;;;;;;5045210;28;20029;-85
2024/03/21 10:01:20;;;;;;;4.90;2.05;;;;;;;;;;5032953;28;20554;-86
2024/03/21 10:03:51;;;;;;;6.30;1.90;;;;;;;;;;5038161;28;20053;-85
2024/03/21 10:06:16;;;;;;;4.45;2.10;;;;;;;;;;5034981;28;20017;-86
2024/03/21 10:08:42;;;;;;;6.45;1.98;;;;;;;;;;5050139;28;20024;-86
2024/03/21 10:11:07;;;;;;;4.93;1.80;;;;;;;;;;5034774;28;20078;-86
2024/03/21 10:13:34;;;;;;;3.53;1.90;;;;;;;;;;5050275;28;20021;-78
2024/03/21 10:16:00;;;;;;;5.15;2.00;;;;;;;;;;5034346;28;20080;-78
2024/03/21 10:18:25;;;;;;;4.07;1.65;;;;;;;;;;5033185;28;20426;-78
2024/03/21 10:20:50;;;;;;;5.60;1.77;;;;;;;;;;5034356;28;20391;-78
2024/03/21 10:23:16;;;;;;;4.32;1.80;;;;;;;;;;5040221;28;20375;-78
2024/03/21 10:25:42;;;;;;;4.85;1.73;;;;;;;;;;5033971;28;20067;-77
2024/03/21 10:28:16;;;;;;;5.88;2.00;;;;;;;;;;5050350;28;20052;-78
2024/03/21 10:30:42;;;;;;;5.10;1.90;;;;;;;;;;5036542;28;20033;-78
2024/03/21 10:33:17;;;;;;;5.20;2.10;;;;;;;;;;5051220;28;20067;-78
2024/03/21 10:35:44;;;;;;;5.03;1.92;;;;;;;;;;5030892;28;20493;-78
2024/03/21 10:38:16;;;;;;;5.47;2.08;;;;;;;;;;5033303;28;20028;-77
2024/03/21 10:40:55;;;;;;;4.22;1.85;;;;;;;;;;5029491;28;20022;-77
2024/03/21 10:43:22;;;;;;;4.28;2.30;;;;;;;;;;5045386;28;20048;-78
2024/03/21 10:45:48;;;;;;;6.72;3.08;;;;;;;;;;5049937;28;20036;-78
2024/03/21 10:48:29;;;;;;;3.90;2.47;;;;;;;;;;5050570;28;20546;-79
2024/03/21 10:50:54;;;;;;;6.25;2.72;;;;;;;;;;5046002;28;20036;-78
2024/03/21 10:53:21;;;;;;;5.68;2.50;;;;;;;;;;5032677;28;20442;-78
2024/03/21 10:55:52;;;;;;;5.18;2.50;;;;;;;;;;5027329;28;20029;-78
2024/03/21 10:58:19;;;;;;;5.80;3.00;;;;;;;;;;5045630;28;20026;-78
2024/03/21 11:00:54;;;;;;;5.75;2.65;;;;;;;;;;5033040;28;20029;-78
2024/03/21 11:03:20;;;;;;;4.40;3.03;;;;;;;;;;5051450;28;20029;-78
2024/03/21 11:05:55;;;;;;;4.68;2.92;;;;;;;;;;5032088;28;20159;-78
2024/03/21 11:08:25;;;;;;;7.93;3.10;;;;;;;;;;5048066;28;20033;-77
2024/03/21 11:10:51;;;;;;;4.10;2.90;;;;;;;;;;5034295;28;20137;-78
2024/03/21 11:13:16;;;;;;;6.57;3.00;;;;;;;;;;5047920;28;20071;-78
2024/03/21 11:15:42;;;;;;;4.85;3.28;;;;;;;;;;5037669;28;20441;-77
2024/03/21 11:18:07;;;;;;;5.68;3.30;;;;;;;;;;5034127;28;20060;-78
2024/03/21 11:20:32;;;;;;;5.63;3.40;;;;;;;;;;5032105;28;20027;-77
2024/03/21 11:22:59;;;;;;;6.43;3.83;;;;;;;;;;5049959;28;20079;-78
2024/03/21 11:25:25;;;;;;;8.38;4.20;;;;;;;;;;5049130;28;20100;-78
2024/03/21 11:27:51;;;;;;;7.93;4.75;;;;;;;;;;5031926;28;20512;-77
2024/03/21 11:30:16;;;;;;;11.25;5.28;;;;;;;;;;5032558;28;20013;-77
2024/03/21 11:32:42;;;;;;;7.97;5.50;;;;;;;;;;5027921;28;20434;-78
2024/03/21 11:35:07;;;;;;;9.27;6.22;;;;;;;;;;5042192;28;20384;-78
2024/03/21 11:37:32;;;;;;;10.55;6.80;;;;;;;;;;5051110;28;20068;-78
2024/03/21 11:39:58;;;;;;;11.07;6.50;;;;;;;;;;5051566;28;20024;-78
2024/03/21 11:42:25;;;;;;;9.52;6.80;;;;;;;;;;5033181;28;20020;-78
2024/03/21 11:44:51;;;;;;;9.45;6.75;;;;;;;;;;5033481;28;20033;-77
2024/03/21 11:47:17;;;;;;;13.82;6.63;;;;;;;;;;5040954;28;20369;-78
2024/03/21 11:49:50;;;;;;;8.88;5.97;;;;;;;;;;5040188;28;20445;-78
2024/03/21 11:52:17;;;;;;;7.97;5.60;;;;;;;;;;5028680;28;20471;-78
2024/03/21 11:54:43;;;;;;;9.43;6.32;;;;;;;;;;5033153;28;20029;-77
2024/03/21 11:57:12;;;;;;;9.95;6.80;;;;;;;;;;5042111;28;20043;-77
2024/03/21 11:59:40;;;;;;;9.80;6.22;;;;;;;;;;5045900;28;20022;-78
2024/03/21 12:02:12;;;;;;;9.75;6.38;;;;;;;;;;5045318;28;20108;-78
2024/03/21 12:04:38;;;;;;;10.57;6.90;;;;;;;;;;5053684;28;20032;-78
2024/03/21 12:07:04;;;;;;;8.05;5.78;;;;;;;;;;5036425;28;20075;-77
2024/03/21 12:09:29;;;;;;;8.50;5.63;;;;;;;;;;5047120;28;20040;-78
2024/03/21 12:11:55;;;;;;;8.50;5.55;;;;;;;;;;5032749;28;20017;-77
2024/03/21 12:14:20;;;;;;;8.43;5.60;;;;;;;;;;5035759;28;20052;-78
2024/03/21 12:16:45;;;;;;;9.75;5.78;;;;;;;;;;5049208;28;20025;-78
2024/03/21 12:19:11;;;;;;;9.27;5.90;;;;;;;;;;5043922;28;20067;-78
2024/03/21 12:21:36;;;;;;;8.90;5.93;;;;;;;;;;5046562;28;20087;-77
2024/03/21 12:24:02;;;;;;;10.27;6.40;;;;;;;;;;5039217;28;20113;-78
2024/03/21 12:26:27;;;;;;;9.95;7.13;;;;;;;;;;5039745;28;20383;-77
2024/03/21 12:28:53;;;;;;;8.73;7.10;;;;;;;;;;5052480;28;20028;-78
2024/03/21 12:31:18;;;;;;;11.95;7.63;;;;;;;;;;5035251;28;20087;-78
2024/03/21 12:33:51;;;;;;;10.13;7.43;;;;;;;;;;5032307;28;20382;-78
2024/03/21 12:36:18;;;;;;;;;;;;;;;;;;5045905;28;20076;-78
2024/03/21 12:38:44;;;;;;;11.20;8.27;;;;;;;;;;5027229;28;19952;-78
2024/03/21 12:41:11;;;;;;;13.27;9.88;;;;;;;;;;5051529;28;20056;-78
2024/03/21 12:43:37;;;;;;;12.32;9.70;;;;;;;;;;5034807;28;20052;-78
2024/03/21 12:46:02;;;;;;;13.02;9.77;;;;;;;;;;5043957;28;20415;-78
2024/03/21 12:48:27;;;;;;;10.65;8.70;;;;;;;;;;5035602;28;20125;-78
2024/03/21 12:50:53;;;;;;;10.63;8.05;;;;;;;;;;5040766;28;20069;-77
2024/03/21 12:53:21;;;;;;;10.60;8.07;;;;;;;;;;5033797;28;20036;-78
2024/03/21 12:55:47;;;;;;;11.73;7.47;;;;;;;;;;5052004;28;20025;-78
2024/03/21 12:58:14;;;;;;;9.93;7.35;;;;;;;;;;5050918;28;20025;-77
2024/03/21 13:00:39;;;;;;;9.50;6.93;;;;;;;;;;5035795;28;20025;-77
2024/03/21 13:03:05;;;;;;;9.35;7.40;;;;;;;;;;5051459;28;20025;-78
2024/03/21 13:05:34;;;;;;;9.50;7.43;;;;;;;;;;5039430;28;20033;-78
2024/03/21 13:08:01;;;;;;;11.82;7.07;;;;;;;;;;5052268;28;20024;-78
2024/03/21 13:10:27;;;;;;;8.45;6.32;;;;;;;;;;5052867;28;20029;-78
2024/03/21 13:12:52;;;;;;;7.88;6.03;;;;;;;;;;5035425;28;20032;-77
2024/03/21 13:15:19;;;;;;;7.75;5.68;;;;;;;;;;5032456;28;20043;-78
2024/03/21 13:17:44;;;;;;;6.90;5.35;;;;;;;;;;5041323;28;20034;-78
2024/03/21 13:20:12;;;;;;;6.28;4.78;;;;;;;;;;5042686;28;20027;-78
2024/03/21 13:22:39;;;;;;;5.20;4.45;;;;;;;;;;5029842;28;20029;-78
2024/03/21 13:25:04;;;;;;;7.63;5.05;;;;;;;;;;5050904;28;20025;-77
2024/03/21 13:27:29;;;;;;;10.20;5.20;;;;;;;;;;5051512;28;20036;-78
2024/03/21 13:29:55;;;;;;;7.38;4.68;;;;;;;;;;5051308;28;20033;-78
2024/03/21 13:32:20;;;;;;;5.93;4.63;;;;;;;;;;5051291;28;20021;-78
2024/03/21 13:34:52;;;;;;;8.25;4.90;;;;;;;;;;5022915;28;20029;-78
2024/03/21 13:37:18;;;;;;;8.37;4.90;;;;;;;;;;5051124;28;20079;-78
2024/03/21 13:39:43;;;;;;;6.20;4.47;;;;;;;;;;5051975;28;20433;-78
2024/03/21 13:42:11;;;;;;;7.20;4.60;;;;;;;;;;5032029;28;20417;-78
2024/03/21 13:44:37;;;;;;;5.78;4.22;;;;;;;;;;5038356;28;20065;-87
2024/03/21 13:47:03;;;;;;;8.43;4.93;;;;;;;;;;5033537;28;20052;-86
2024/03/21 13:49:28;;;;;;;6.22;4.47;;;;;;;;;;5034324;28;20163;-86
2024/03/21 13:51:54;;;;;;;7.88;4.65;;;;;;;;;;5050486;28;20489;-86
2024/03/21 13:54:20;;;;;;;7.88;4.60;;;;;;;;;;5044397;28;20024;-86
2024/03/21 13:56:46;;;;;;;8.43;5.03;;;;;;;;;;5044945;28;20033;-86
2024/03/21 13:59:11;;;;;;;6.03;4.95;;;;;;;;;;5023329;28;20116;-86
2024/03/21 14:01:36;;;;;;;6.35;5.05;;;;;;;;;;5051673;28;20387;-87
2024/03/21 14:04:03;;;;;;;7.32;4.68;;;;;;;;;;5051411;28;20075;-86
2024/03/21 14:06:29;;;;;;;8.40;5.85;;;;;;;;;;5045287;28;20013;-86
2024/03/21 14:08:54;;;;;;;10.80;6.30;;;;;;;;;;5032862;28;20037;-86
2024/03/21 14:11:19;;;;;;;10.20;6.55;;;;;;;;;;5045689;28;20059;-85
2024/03/21 14:13:49;;;;;;;7.82;6.20;;;;;;;;;;5032103;28;20395;-86
2024/03/21 14:16:15;;;;;;;8.63;6.75;;;;;;;;;;5044658;28;20556;-86
2024/03/21 14:18:41;;;;;;;7.72;6.57;;;;;;;;;;5051247;28;20032;-87
2024/03/21 14:21:08;;;;;;;8.60;7.30;;;;;;;;;;5035507;28;20443;-87
2024/03/21 14:23:33;;;;;;;9.18;7.32;;;;;;;;;;5033507;28;20116;-86
2024/03/21 14:26:03;;;;;;;10.85;9.02;;;;;;;;;;5050793;28;20092;-85
2024/03/21 14:28:29;;;;;;;11.95;10.30;;;;;;;;;;5047066;28;20098;-86
2024/03/21 14:30:55;;;;;;;15.68;11.27;;;;;;;;;;5031489;28;20068;-87
2024/03/21 14:33:21;;;;;;;13.95;11.02;;;;;;;;;;5033605;28;20067;-87